Terminal Aerodrome Forecast
Issued by NWS North Platte, NE

Current Version | Previous Version | Text Only | Print | Product List | Glossary On
Versions: 1 2 3 4 5 6 7 8 9 10 11 12 13 14 15 16
000
FTUS43 KLBF 251120
TAFVTN
TAF
KVTN 251120Z 2512/2612 30008KT P6SM SKC
     FM251500 27008KT P6SM SKC
     FM251800 21010KT P6SM SKC
     FM260600 24008KT P6SM BKN250
     FM260900 33015G26KT P6SM BKN100=

USA.gov is the U.S. government's official web portal to all federal, state and local government web resources and services.